createdAt,value
2022-12-09T00:01:21.545Z,99958.00
2022-12-09T00:03:49.879Z,99954.84
2022-12-09T00:06:25.626Z,99952.94
2022-12-09T00:08:53.690Z,99950.38
2022-12-09T00:11:22.842Z,99965.03
2022-12-09T00:13:56.967Z,99953.50
2022-12-09T00:16:25.541Z,99954.34
2022-12-09T00:18:53.284Z,99966.03
2022-12-09T00:21:34.791Z,99956.25
2022-12-09T00:24:10.693Z,99957.06
2022-12-09T00:26:38.051Z,99962.16
2022-12-09T00:29:04.906Z,99965.91
2022-12-09T00:31:36.776Z,99960.94
2022-12-09T00:34:10.852Z,99959.63
2022-12-09T00:36:37.733Z,99964.34
2022-12-09T00:39:05.337Z,99957.53
2022-12-09T00:41:34.181Z,99964.78
2022-12-09T00:44:00.792Z,99963.09
2022-12-09T00:46:27.952Z,99968.13
2022-12-09T00:48:54.833Z,99956.34
2022-12-09T00:51:25.197Z,99968.44
2022-12-09T00:53:56.389Z,99966.47
2022-12-09T00:56:28.414Z,99965.88
2022-12-09T00:58:58.046Z,99958.84
2022-12-09T01:01:26.669Z,99962.25
2022-12-09T01:03:54.334Z,99962.31
2022-12-09T01:06:26.232Z,99962.69
2022-12-09T01:08:56.679Z,99955.41
2022-12-09T01:11:29.003Z,99954.72
2022-12-09T01:14:01.788Z,99951.72
2022-12-09T01:16:33.841Z,99960.06
2022-12-09T01:19:06.887Z,99962.44
2022-12-09T01:21:35.627Z,99942.09
2022-12-09T01:24:09.510Z,99945.00
2022-12-09T01:26:37.629Z,99945.97
2022-12-09T01:29:04.851Z,99952.78
2022-12-09T01:31:31.672Z,99962.97
2022-12-09T01:33:58.710Z,99955.34
2022-12-09T01:36:30.550Z,99960.09
2022-12-09T01:39:00.040Z,99955.56
2022-12-09T01:41:29.726Z,99947.53
2022-12-09T01:44:20.223Z,99948.13
2022-12-09T01:46:48.546Z,99950.75
2022-12-09T01:49:26.010Z,99950.56
2022-12-09T01:52:11.138Z,99945.19
2022-12-09T01:54:43.877Z,99942.00
2022-12-09T01:57:12.005Z,99932.25
2022-12-09T01:59:40.107Z,99946.03
2022-12-09T02:02:16.188Z,99948.59
2022-12-09T02:04:47.858Z,99953.59
2022-12-09T02:07:15.064Z,99939.25
2022-12-09T02:09:43.198Z,99940.00
2022-12-09T02:12:57.507Z,99939.91
2022-12-09T02:15:44.379Z,99941.41
2022-12-09T02:18:22.444Z,99940.19
2022-12-09T02:21:04.550Z,99933.31
2022-12-09T02:24:03.689Z,99931.13
2022-12-09T02:26:50.166Z,99928.28
2022-12-09T02:30:15.449Z,99923.75
2022-12-09T02:33:26.620Z,99921.84
2022-12-09T02:36:22.175Z,99927.16
2022-12-09T02:38:52.814Z,99929.72
2022-12-09T02:41:35.705Z,99934.88
2022-12-09T02:44:17.219Z,99933.53
2022-12-09T02:46:46.482Z,99922.88
2022-12-09T02:49:15.892Z,99923.63
2022-12-09T02:51:49.461Z,99930.72
2022-12-09T02:54:20.520Z,99931.56
2022-12-09T02:57:10.561Z,99929.00
2022-12-09T02:59:37.266Z,99933.38
2022-12-09T03:02:41.201Z,99934.97
2022-12-09T03:05:39.494Z,99941.94
2022-12-09T03:08:51.911Z,99936.78
2022-12-09T03:11:24.301Z,99935.91
2022-12-09T03:14:20.938Z,99936.78
2022-12-09T03:17:07.352Z,99936.03
2022-12-09T03:19:47.214Z,99928.91
2022-12-09T03:22:22.992Z,99926.38
2022-12-09T03:25:01.109Z,99930.81
2022-12-09T03:27:40.115Z,99935.06
2022-12-09T03:30:11.178Z,99936.88
2022-12-09T03:32:41.168Z,99932.41
2022-12-09T03:35:41.403Z,99936.03
2022-12-09T03:38:17.196Z,99936.09
2022-12-09T03:40:50.224Z,99930.81
2022-12-09T03:43:30.475Z,99928.91
2022-12-09T03:45:58.995Z,99928.84
2022-12-09T03:48:26.579Z,99930.59
2022-12-09T03:51:10.558Z,99941.88
2022-12-09T03:54:16.720Z,99925.22
2022-12-09T03:56:51.967Z,99930.22
2022-12-09T03:59:23.820Z,99926.53
2022-12-09T04:01:53.117Z,99921.25
2022-12-09T04:04:20.393Z,99917.53
2022-12-09T04:06:52.351Z,99919.25
2022-12-09T04:09:19.246Z,99920.94
2022-12-09T04:11:47.004Z,99915.56
2022-12-09T04:14:15.804Z,99927.75
2022-12-09T04:16:44.517Z,99916.22
2022-12-09T04:19:13.032Z,99916.53
2022-12-09T04:21:40.476Z,99912.69
2022-12-09T04:24:08.865Z,99923.22
2022-12-09T04:26:36.203Z,99919.63
2022-12-09T04:29:03.931Z,99913.56
2022-12-09T04:31:30.861Z,99915.16
2022-12-09T04:33:59.226Z,99911.31
2022-12-09T04:36:28.434Z,99910.66
2022-12-09T04:38:55.432Z,99909.13
2022-12-09T04:41:22.837Z,99913.28
2022-12-09T04:43:49.778Z,99897.31
2022-12-09T04:46:18.675Z,99917.66
2022-12-09T04:48:48.736Z,99906.41
2022-12-09T04:51:17.072Z,99906.31
2022-12-09T04:53:45.132Z,99909.06
2022-12-09T04:56:20.730Z,99901.03
2022-12-09T04:58:50.770Z,99906.50
2022-12-09T05:01:28.457Z,99905.34
2022-12-09T05:03:58.667Z,99910.00
2022-12-09T05:06:25.985Z,99914.56
2022-12-09T05:08:53.302Z,99917.06
2022-12-09T05:11:23.719Z,99925.03
2022-12-09T08:55:12.140Z,99969.44
2022-12-09T08:57:39.075Z,99968.19
2022-12-09T09:00:08.255Z,99969.69
2022-12-09T09:02:35.498Z,99981.03
2022-12-09T09:05:02.932Z,99982.31
2022-12-09T09:07:31.956Z,99979.97
2022-12-09T09:10:01.335Z,99986.25
2022-12-09T09:12:28.574Z,99974.97
2022-12-09T09:14:55.553Z,99985.28
2022-12-09T09:17:23.737Z,99990.03
2022-12-09T09:19:51.465Z,99985.41
2022-12-09T09:22:18.385Z,99986.69
2022-12-09T09:24:45.579Z,99991.97
2022-12-09T09:27:12.291Z,99987.28
2022-12-09T09:29:39.102Z,99974.56
2022-12-09T09:32:06.518Z,99973.03
2022-12-09T09:34:33.726Z,99977.00
2022-12-09T09:37:00.644Z,99977.44
2022-12-09T09:39:27.483Z,99968.44
2022-12-09T09:42:08.206Z,99973.72
2022-12-09T09:45:01.068Z,99976.25
2022-12-09T09:47:54.333Z,99972.00
2022-12-09T09:50:44.433Z,99975.59
2022-12-09T09:53:35.803Z,99974.59
2022-12-09T09:56:35.266Z,99968.75
2022-12-09T09:59:41.892Z,99975.28
2022-12-09T10:02:30.003Z,99969.25
2022-12-09T10:05:28.250Z,99960.34
2022-12-09T10:08:32.520Z,99966.50
2022-12-09T10:11:26.084Z,99968.63
2022-12-09T10:14:22.460Z,99963.56
2022-12-09T10:17:33.109Z,99956.00
2022-12-09T10:20:12.814Z,99960.59
2022-12-09T10:23:02.395Z,99954.00
2022-12-09T10:25:42.808Z,99953.16
2022-12-09T10:28:42.474Z,99956.56
2022-12-09T10:31:11.990Z,99955.91
2022-12-09T10:33:41.003Z,99950.97
2022-12-09T10:36:30.786Z,99955.28
2022-12-09T10:39:03.835Z,99950.78
2022-12-09T10:42:15.400Z,99956.53
2022-12-09T10:44:43.179Z,99950.66
2022-12-09T10:47:29.118Z,99948.28
2022-12-09T10:49:58.493Z,99950.38
2022-12-09T10:52:45.487Z,99946.25
2022-12-09T10:55:34.999Z,99946.00
2022-12-09T10:58:23.730Z,99933.03
2022-12-09T11:01:13.378Z,99940.50
2022-12-09T11:03:54.749Z,99942.41
2022-12-09T11:06:39.969Z,99935.94
2022-12-09T11:09:17.521Z,99941.25
2022-12-09T11:11:51.233Z,99941.75
2022-12-09T11:14:34.900Z,99940.91
2022-12-09T11:17:25.183Z,99931.69
2022-12-09T11:20:19.561Z,99941.88
2022-12-09T11:23:06.390Z,99941.34
2022-12-09T11:25:37.104Z,99939.75
2022-12-09T11:28:16.688Z,99944.75
2022-12-09T11:34:04.706Z,99939.47
2022-12-09T11:36:46.567Z,99942.75
2022-12-09T11:39:36.399Z,99934.31
2022-12-09T11:42:23.071Z,99933.56
2022-12-09T11:45:30.916Z,99932.69
2022-12-09T11:48:31.903Z,99921.78
2022-12-09T11:50:57.663Z,99928.78
2022-12-09T11:53:40.595Z,99934.31
2022-12-09T11:56:21.032Z,99929.53
2022-12-09T11:59:07.090Z,99931.97
2022-12-09T12:02:17.461Z,99934.31
2022-12-09T12:05:22.373Z,99932.63
2022-12-09T12:08:15.692Z,99938.53
2022-12-09T12:10:54.366Z,99940.44
2022-12-09T12:13:32.038Z,99941.94
2022-12-09T12:16:18.839Z,99934.75
2022-12-09T12:19:13.528Z,99946.19
2022-12-09T12:22:08.131Z,99942.59
2022-12-09T12:25:42.069Z,99940.34
2022-12-09T12:28:26.642Z,99934.44
2022-12-09T12:31:27.382Z,99941.41
2022-12-09T12:34:28.485Z,99934.97
2022-12-09T12:37:44.339Z,99938.13
2022-12-09T12:40:45.136Z,99937.91
2022-12-09T12:44:34.773Z,99939.22
2022-12-09T12:47:32.899Z,99938.03
2022-12-09T12:50:32.021Z,99935.38
2022-12-09T12:53:47.154Z,99941.56
2022-12-09T12:57:05.017Z,99931.34
2022-12-09T13:00:08.949Z,99932.00
2022-12-09T13:02:53.900Z,99933.50
2022-12-09T13:05:33.937Z,99923.94
2022-12-09T13:08:40.618Z,99923.81
2022-12-09T15:58:49.042Z,99964.88
2022-12-09T16:01:25.074Z,99973.91
2022-12-09T16:03:55.913Z,99965.31
2022-12-09T16:06:35.902Z,99960.69
2022-12-09T16:09:13.012Z,99965.66
2022-12-09T16:11:47.041Z,99971.69
2022-12-09T16:14:16.906Z,99970.59
2022-12-09T16:16:51.261Z,99964.53
2022-12-09T16:19:30.792Z,99970.22
2022-12-09T16:22:06.207Z,99966.63
2022-12-09T16:27:37.435Z,99966.34
2022-12-09T16:30:18.222Z,99967.09
2022-12-09T16:32:55.505Z,99970.78
2022-12-09T16:35:45.291Z,99965.25
2022-12-09T16:38:14.610Z,99964.94
2022-12-09T16:40:44.287Z,99963.91
2022-12-09T16:43:17.604Z,99971.56
2022-12-09T16:45:53.973Z,99974.56
2022-12-09T16:48:24.763Z,99969.81
2022-12-09T16:51:14.188Z,99985.59
2022-12-09T16:53:49.867Z,99984.78
2022-12-09T16:56:26.425Z,99990.16
2022-12-09T16:58:55.052Z,99976.88
2022-12-09T17:01:31.833Z,99982.31
2022-12-09T17:04:09.855Z,99981.41
2022-12-09T17:06:36.501Z,99985.16
2022-12-09T17:09:03.335Z,99987.63
2022-12-09T17:11:46.947Z,99986.78
2022-12-09T17:14:16.118Z,99986.59
2022-12-09T17:16:42.885Z,99986.78
2022-12-09T17:19:09.724Z,99987.94
2022-12-09T17:21:36.898Z,99976.78
2022-12-09T17:24:06.824Z,99976.19
2022-12-09T17:26:34.037Z,99984.38
2022-12-09T17:29:02.048Z,99977.75
2022-12-09T17:31:31.266Z,99984.78
2022-12-09T17:33:58.138Z,99993.66
2022-12-09T17:36:25.860Z,99991.34
2022-12-09T17:38:52.629Z,99994.34
2022-12-09T17:41:23.527Z,100001.06
2022-12-09T17:43:50.458Z,100010.28
2022-12-09T17:46:17.518Z,100017.75
2022-12-09T17:48:44.304Z,100017.66
2022-12-09T17:51:17.838Z,100029.63
2022-12-09T17:53:46.920Z,100031.16
2022-12-09T17:56:22.092Z,100030.84
2022-12-09T17:59:03.625Z,100034.97
2022-12-09T18:01:31.503Z,100029.81
2022-12-09T18:04:04.618Z,100025.72
2022-12-09T18:06:36.690Z,100026.63
2022-12-09T18:09:07.580Z,100022.97
2022-12-09T18:44:07.268Z,100035.13
2022-12-09T18:46:46.637Z,100049.56
2022-12-09T19:02:51.839Z,100059.34
2022-12-09T19:05:19.804Z,100053.00
2022-12-09T19:07:47.170Z,100059.88
2022-12-09T19:10:13.804Z,100065.84
2022-12-09T19:12:50.625Z,100062.66
2022-12-09T19:15:20.602Z,100068.53
2022-12-09T19:17:47.427Z,100054.97
2022-12-09T19:20:14.085Z,100067.34
2022-12-09T19:22:40.819Z,100070.16
2022-12-09T19:25:08.203Z,100068.03
2022-12-09T19:27:34.900Z,100070.41
2022-12-09T19:30:01.643Z,100065.72
2022-12-09T19:32:52.388Z,100068.38
2022-12-09T19:35:15.314Z,100069.22
2022-12-09T19:37:42.067Z,100085.84
2022-12-09T19:40:10.509Z,100081.31
2022-12-09T19:42:39.880Z,100086.00
2022-12-09T19:45:12.167Z,100085.94
2022-12-09T19:47:40.774Z,100089.22
2022-12-09T19:50:08.197Z,100095.28
2022-12-09T19:52:34.996Z,100093.34
2022-12-09T19:55:01.832Z,100088.19
2022-12-09T19:57:28.501Z,100095.22
2022-12-09T19:59:55.159Z,100091.94
2022-12-09T20:02:21.937Z,100083.63
2022-12-09T20:04:50.374Z,100079.19
2022-12-09T20:07:18.919Z,100082.50
2022-12-09T20:09:48.790Z,100100.66
2022-12-09T20:12:15.789Z,100094.38
2022-12-09T20:14:43.101Z,100088.13
2022-12-09T20:17:10.205Z,100102.09
2022-12-09T20:19:37.076Z,100096.06
2022-12-09T20:22:04.098Z,100096.75
2022-12-09T20:24:30.858Z,100101.91
2022-12-09T20:26:57.645Z,100101.06
2022-12-09T20:29:24.300Z,100095.88
2022-12-09T20:31:53.270Z,100113.94
2022-12-09T20:34:20.027Z,100100.03
2022-12-09T20:36:49.667Z,100111.66
2022-12-09T20:39:20.966Z,100116.09
2022-12-09T20:41:48.953Z,100110.38
2022-12-09T20:44:20.212Z,100108.06
2022-12-09T20:46:52.434Z,100122.31
2022-12-09T20:49:26.094Z,100117.53
2022-12-09T20:51:53.204Z,100123.16
2022-12-09T20:54:19.898Z,100119.00
2022-12-09T20:56:50.295Z,100130.22
2022-12-09T20:59:16.975Z,100124.09
2022-12-09T21:01:46.906Z,100127.56
2022-12-09T21:04:14.263Z,100129.72
2022-12-09T21:06:42.109Z,100134.66
2022-12-09T21:09:18.902Z,100136.09
2022-12-09T21:11:48.928Z,100132.22
2022-12-09T21:14:18.618Z,100141.50
2022-12-09T21:16:49.528Z,100144.81
2022-12-09T21:19:25.739Z,100147.38
2022-12-09T21:21:53.622Z,100141.81
2022-12-09T21:24:21.852Z,100143.94
2022-12-09T21:26:48.564Z,100146.59
2022-12-09T21:29:16.039Z,100148.47
2022-12-09T21:31:44.322Z,100142.41
2022-12-09T21:34:11.292Z,100149.66
2022-12-09T21:36:42.855Z,100153.16
2022-12-09T21:39:14.991Z,100140.19
2022-12-09T21:41:43.597Z,100144.91
2022-12-09T21:44:18.940Z,100139.22
2022-12-09T21:46:46.174Z,100139.69
2022-12-09T21:49:13.208Z,100142.00
2022-12-09T21:51:41.000Z,100146.06
2022-12-09T21:54:10.791Z,100145.75
2022-12-09T21:56:37.923Z,100153.44
2022-12-09T21:59:07.404Z,100155.13
2022-12-09T22:01:41.990Z,100153.50
2022-12-09T22:04:16.994Z,100156.06
2022-12-09T22:06:51.187Z,100164.75
2022-12-09T22:09:20.731Z,100173.53
2022-12-09T22:11:47.803Z,100185.91
2022-12-09T22:35:58.202Z,100172.63
2022-12-09T22:38:24.893Z,100170.28
2022-12-09T22:40:51.491Z,100166.13
2022-12-09T22:43:20.532Z,100178.69
2022-12-09T22:45:47.350Z,100178.22
2022-12-09T22:48:15.134Z,100165.66
2022-12-09T22:50:41.728Z,100166.38
2022-12-09T22:53:08.613Z,100176.50
2022-12-09T22:55:35.290Z,100175.59
2022-12-09T22:58:05.240Z,100161.53
2022-12-09T23:00:32.163Z,100168.31
2022-12-09T23:02:59.139Z,100166.56
2022-12-09T23:05:29.139Z,100170.63
2022-12-09T23:07:59.950Z,100170.56
2022-12-09T23:10:26.775Z,100186.34
2022-12-09T23:12:53.502Z,100170.63
2022-12-09T23:15:20.167Z,100171.47
2022-12-09T23:17:47.151Z,100174.91
2022-12-09T23:20:13.846Z,100170.91
2022-12-09T23:22:40.489Z,100192.63
2022-12-09T23:25:07.992Z,100187.53
2022-12-09T23:27:34.660Z,100183.25
2022-12-09T23:30:01.315Z,100184.88
2022-12-09T23:32:30.691Z,100177.19
2022-12-09T23:34:57.352Z,100185.06
2022-12-09T23:37:24.071Z,100187.78
2022-12-09T23:39:50.705Z,100185.63
2022-12-09T23:42:19.740Z,100184.94
2022-12-09T23:44:49.718Z,100183.38
2022-12-09T23:47:16.769Z,100184.59
2022-12-09T23:49:43.499Z,100180.84
2022-12-09T23:52:11.012Z,100176.22
2022-12-09T23:54:38.070Z,100182.28
2022-12-09T23:57:07.861Z,100188.09
2022-12-09T23:59:34.616Z,100183.75
